sensor_id;sensor_type;location;lat;lon;timestamp;pressure;altitude;pressure_sealevel;temperature;humidity
44044;BME280;29709;52.396;16.796;2023-05-29T00:00:14;102019.96;;;11.91;61.98
44044;BME280;29709;52.396;16.796;2023-05-29T00:03:33;102021.53;;;11.94;57.75
44044;BME280;29709;52.396;16.796;2023-05-29T00:06:46;102022.11;;;11.88;59.96
44044;BME280;29709;52.396;16.796;2023-05-29T00:09:59;102031.11;;;11.70;60.20
44044;BME280;29709;52.396;16.796;2023-05-29T00:13:12;102030.09;;;11.71;59.89
44044;BME280;29709;52.396;16.796;2023-05-29T00:16:25;102017.35;;;11.80;62.33
44044;BME280;29709;52.396;16.796;2023-05-29T00:19:39;102016.16;;;11.73;61.05
44044;BME280;29709;52.396;16.796;2023-05-29T00:22:52;102022.12;;;11.78;61.58
44044;BME280;29709;52.396;16.796;2023-05-29T00:26:06;102030.38;;;11.78;62.44
44044;BME280;29709;52.396;16.796;2023-05-29T00:29:21;102024.43;;;11.63;61.40
44044;BME280;29709;52.396;16.796;2023-05-29T00:32:35;102022.12;;;11.68;61.48
44044;BME280;29709;52.396;16.796;2023-05-29T00:35:48;102027.63;;;11.68;63.02
44044;BME280;29709;52.396;16.796;2023-05-29T00:39:02;102021.97;;;11.60;62.97
44044;BME280;29709;52.396;16.796;2023-05-29T00:42:15;102022.84;;;11.61;59.95
44044;BME280;29709;52.396;16.796;2023-05-29T00:45:28;102025.30;;;11.54;61.66
44044;BME280;29709;52.396;16.796;2023-05-29T00:48:44;102020.24;;;11.49;61.27
44044;BME280;29709;52.396;16.796;2023-05-29T00:51:57;102021.11;;;11.50;62.60
44044;BME280;29709;52.396;16.796;2023-05-29T00:55:11;102024.57;;;11.42;63.00
44044;BME280;29709;52.396;16.796;2023-05-29T00:58:25;102026.76;;;11.39;63.60
44044;BME280;29709;52.396;16.796;2023-05-29T01:01:39;102029.21;;;11.42;63.71
44044;BME280;29709;52.396;16.796;2023-05-29T01:04:53;102032.68;;;11.44;60.91
44044;BME280;29709;52.396;16.796;2023-05-29T01:08:07;102032.11;;;11.40;60.14
44044;BME280;29709;52.396;16.796;2023-05-29T01:11:27;102032.81;;;11.33;63.30
44044;BME280;29709;52.396;16.796;2023-05-29T01:14:51;102024.70;;;11.31;62.81
44044;BME280;29709;52.396;16.796;2023-05-29T01:25:09;102025.71;;;11.20;63.91
44044;BME280;29709;52.396;16.796;2023-05-29T01:28:21;102027.44;;;11.12;63.89
44044;BME280;29709;52.396;16.796;2023-05-29T01:31:37;102025.12;;;11.07;62.61
44044;BME280;29709;52.396;16.796;2023-05-29T01:34:50;102031.32;;;10.99;63.66
44044;BME280;29709;52.396;16.796;2023-05-29T01:38:03;102027.26;;;11.04;62.43
44044;BME280;29709;52.396;16.796;2023-05-29T01:41:17;102028.43;;;11.01;62.17
44044;BME280;29709;52.396;16.796;2023-05-29T01:44:31;102024.38;;;10.95;64.22
44044;BME280;29709;52.396;16.796;2023-05-29T01:47:45;102035.92;;;10.89;64.13
44044;BME280;29709;52.396;16.796;2023-05-29T01:50:58;102019.42;;;10.89;62.62
44044;BME280;29709;52.396;16.796;2023-05-29T01:54:13;102025.61;;;10.82;63.88
44044;BME280;29709;52.396;16.796;2023-05-29T01:57:26;102021.96;;;10.72;63.85
44044;BME280;29709;52.396;16.796;2023-05-29T02:00:39;102032.56;;;10.76;64.98
44044;BME280;29709;52.396;16.796;2023-05-29T02:03:53;102022.83;;;10.72;63.11
44044;BME280;29709;52.396;16.796;2023-05-29T02:07:06;102026.74;;;10.69;63.50
44044;BME280;29709;52.396;16.796;2023-05-29T02:10:19;102025.73;;;10.70;65.58
44044;BME280;29709;52.396;16.796;2023-05-29T02:13:32;102024.85;;;10.70;66.17
44044;BME280;29709;52.396;16.796;2023-05-29T02:16:45;102021.39;;;10.68;66.07
44044;BME280;29709;52.396;16.796;2023-05-29T02:19:58;102022.54;;;10.65;64.79
44044;BME280;29709;52.396;16.796;2023-05-29T02:23:12;102024.09;;;10.58;64.52
44044;BME280;29709;52.396;16.796;2023-05-29T02:26:26;102018.88;;;10.55;64.79
44044;BME280;29709;52.396;16.796;2023-05-29T02:29:39;102023.77;;;10.52;66.15
44044;BME280;29709;52.396;16.796;2023-05-29T02:32:52;102025.40;;;10.54;66.79
44044;BME280;29709;52.396;16.796;2023-05-29T02:36:06;102022.64;;;10.54;66.41
44044;BME280;29709;52.396;16.796;2023-05-29T02:39:24;102039.14;;;10.54;65.91
44044;BME280;29709;52.396;16.796;2023-05-29T02:42:37;102026.95;;;10.47;65.71
44044;BME280;29709;52.396;16.796;2023-05-29T02:45:51;102024.48;;;10.44;64.44
44044;BME280;29709;52.396;16.796;2023-05-29T02:49:08;102032.38;;;10.37;67.01
44044;BME280;29709;52.396;16.796;2023-05-29T02:52:21;102028.77;;;10.37;65.81
44044;BME280;29709;52.396;16.796;2023-05-29T02:55:35;102028.05;;;10.35;66.39
44044;BME280;29709;52.396;16.796;2023-05-29T02:58:50;102025.30;;;10.35;66.75
44044;BME280;29709;52.396;16.796;2023-05-29T03:02:03;102024.15;;;10.37;68.26
44044;BME280;29709;52.396;16.796;2023-05-29T03:05:16;102022.99;;;10.40;67.88
44044;BME280;29709;52.396;16.796;2023-05-29T03:08:32;102030.98;;;10.43;67.75
44044;BME280;29709;52.396;16.796;2023-05-29T03:11:46;102027.95;;;10.46;67.27
44044;BME280;29709;52.396;16.796;2023-05-29T03:15:05;102032.44;;;10.47;66.74
44044;BME280;29709;52.396;16.796;2023-05-29T03:18:19;102040.15;;;10.53;68.63
44044;BME280;29709;52.396;16.796;2023-05-29T03:21:33;102039.58;;;10.59;67.40
44044;BME280;29709;52.396;16.796;2023-05-29T03:24:46;102044.25;;;10.68;68.37
44044;BME280;29709;52.396;16.796;2023-05-29T03:27:59;102044.87;;;10.82;69.79
44044;BME280;29709;52.396;16.796;2023-05-29T03:31:13;102047.25;;;10.96;69.53
44044;BME280;29709;52.396;16.796;2023-05-29T03:34:26;102047.53;;;11.03;69.00
44044;BME280;29709;52.396;16.796;2023-05-29T03:37:40;102046.11;;;11.08;69.03
44044;BME280;29709;52.396;16.796;2023-05-29T03:40:53;102041.34;;;11.20;68.98
44044;BME280;29709;52.396;16.796;2023-05-29T03:44:06;102042.23;;;11.30;67.13
44044;BME280;29709;52.396;16.796;2023-05-29T03:47:20;102047.62;;;11.41;68.23
44044;BME280;29709;52.396;16.796;2023-05-29T03:50:33;102054.87;;;11.52;69.41
44044;BME280;29709;52.396;16.796;2023-05-29T03:53:46;102045.44;;;11.64;68.19
44044;BME280;29709;52.396;16.796;2023-05-29T03:56:59;102043.85;;;11.71;66.41
44044;BME280;29709;52.396;16.796;2023-05-29T04:00:13;102052.42;;;11.78;67.00
44044;BME280;29709;52.396;16.796;2023-05-29T04:03:26;102055.91;;;11.90;67.83
44044;BME280;29709;52.396;16.796;2023-05-29T04:06:40;102056.90;;;11.98;68.11
44044;BME280;29709;52.396;16.796;2023-05-29T04:09:54;102061.97;;;12.12;69.34
44044;BME280;29709;52.396;16.796;2023-05-29T04:13:07;102055.73;;;12.20;68.77
44044;BME280;29709;52.396;16.796;2023-05-29T04:16:20;102062.65;;;12.34;67.91
44044;BME280;29709;52.396;16.796;2023-05-29T04:19:33;102059.28;;;12.40;67.50
44044;BME280;29709;52.396;16.796;2023-05-29T04:22:47;102059.41;;;12.48;65.16
44044;BME280;29709;52.396;16.796;2023-05-29T04:26:00;102062.87;;;12.50;65.21
44044;BME280;29709;52.396;16.796;2023-05-29T04:29:15;102071.86;;;12.62;67.44
44044;BME280;29709;52.396;16.796;2023-05-29T04:32:28;102069.62;;;12.75;67.53
44044;BME280;29709;52.396;16.796;2023-05-29T04:35:41;102071.43;;;12.94;64.72
44044;BME280;29709;52.396;16.796;2023-05-29T04:38:58;102067.44;;;13.06;66.10
44044;BME280;29709;52.396;16.796;2023-05-29T04:42:11;102075.38;;;13.19;66.22
44044;BME280;29709;52.396;16.796;2023-05-29T04:45:27;102068.77;;;13.29;64.86
44044;BME280;29709;52.396;16.796;2023-05-29T04:48:40;102070.93;;;13.36;64.66
44044;BME280;29709;52.396;16.796;2023-05-29T04:51:54;102071.56;;;13.47;64.84
44044;BME280;29709;52.396;16.796;2023-05-29T04:55:07;102071.72;;;13.64;64.29
44044;BME280;29709;52.396;16.796;2023-05-29T04:58:20;102066.60;;;13.69;63.94
44044;BME280;29709;52.396;16.796;2023-05-29T05:01:34;102053.58;;;13.79;63.71
44044;BME280;29709;52.396;16.796;2023-05-29T05:04:47;102062.81;;;13.88;63.28
44044;BME280;29709;52.396;16.796;2023-05-29T05:08:00;102066.03;;;14.01;63.39
44044;BME280;29709;52.396;16.796;2023-05-29T05:11:14;102058.61;;;14.27;62.75
44044;BME280;29709;52.396;16.796;2023-05-29T05:14:27;102047.20;;;14.48;61.85
44044;BME280;29709;52.396;16.796;2023-05-29T05:17:40;102047.05;;;14.84;61.18
44044;BME280;29709;52.396;16.796;2023-05-29T05:20:54;102043.91;;;15.13;60.44
44044;BME280;29709;52.396;16.796;2023-05-29T05:24:08;102051.45;;;15.53;59.50
44044;BME280;29709;52.396;16.796;2023-05-29T05:27:21;102048.03;;;15.83;58.38
44044;BME280;29709;52.396;16.796;2023-05-29T05:30:34;102056.01;;;16.03;57.43
44044;BME280;29709;52.396;16.796;2023-05-29T05:33:48;102051.14;;;16.29;57.32
44044;BME280;29709;52.396;16.796;2023-05-29T05:37:01;102053.18;;;16.52;56.31
44044;BME280;29709;52.396;16.796;2023-05-29T05:40:15;102058.74;;;16.68;56.60
44044;BME280;29709;52.396;16.796;2023-05-29T05:43:28;102052.54;;;16.97;55.60
44044;BME280;29709;52.396;16.796;2023-05-29T05:46:42;102063.41;;;17.15;54.78
44044;BME280;29709;52.396;16.796;2023-05-29T05:49:55;102064.62;;;17.20;53.67
44044;BME280;29709;52.396;16.796;2023-05-29T05:53:08;102061.12;;;17.49;53.62
44044;BME280;29709;52.396;16.796;2023-05-29T05:56:22;102061.88;;;17.74;52.39
44044;BME280;29709;52.396;16.796;2023-05-29T05:59:35;102065.80;;;18.03;52.35
44044;BME280;29709;52.396;16.796;2023-05-29T06:02:48;102064.95;;;18.40;51.80
44044;BME280;29709;52.396;16.796;2023-05-29T06:06:02;102077.93;;;18.48;49.76
44044;BME280;29709;52.396;16.796;2023-05-29T06:09:15;102076.83;;;18.34;50.41
44044;BME280;29709;52.396;16.796;2023-05-29T06:12:28;102077.43;;;18.44;51.14
44044;BME280;29709;52.396;16.796;2023-05-29T06:15:41;102077.86;;;18.56;49.94
44044;BME280;29709;52.396;16.796;2023-05-29T06:18:55;102087.36;;;18.61;49.59
44044;BME280;29709;52.396;16.796;2023-05-29T06:22:08;102091.63;;;18.72;50.72
44044;BME280;29709;52.396;16.796;2023-05-29T06:25:22;102084.43;;;18.92;49.80
44044;BME280;29709;52.396;16.796;2023-05-29T06:28:40;102084.78;;;19.33;49.50
44044;BME280;29709;52.396;16.796;2023-05-29T06:31:53;102083.89;;;19.63;48.98
44044;BME280;29709;52.396;16.796;2023-05-29T06:35:07;102087.68;;;19.76;48.04
44044;BME280;29709;52.396;16.796;2023-05-29T06:38:20;102092.15;;;19.71;47.98
44044;BME280;29709;52.396;16.796;2023-05-29T06:41:33;102094.23;;;19.69;48.63
44044;BME280;29709;52.396;16.796;2023-05-29T06:44:46;102111.84;;;19.69;48.75
44044;BME280;29709;52.396;16.796;2023-05-29T06:47:59;102108.68;;;19.72;48.96
44044;BME280;29709;52.396;16.796;2023-05-29T06:51:12;102115.57;;;19.76;49.66
44044;BME280;29709;52.396;16.796;2023-05-29T06:54:26;102108.95;;;19.99;48.20
44044;BME280;29709;52.396;16.796;2023-05-29T06:57:39;102108.49;;;19.95;47.88
44044;BME280;29709;52.396;16.796;2023-05-29T07:00:52;102101.31;;;19.86;48.05
44044;BME280;29709;52.396;16.796;2023-05-29T07:04:05;102112.73;;;19.70;48.01
44044;BME280;29709;52.396;16.796;2023-05-29T07:07:19;102107.81;;;19.72;47.38
44044;BME280;29709;52.396;16.796;2023-05-29T07:10:32;102104.10;;;19.86;47.95
44044;BME280;29709;52.396;16.796;2023-05-29T07:13:45;102097.78;;;19.99;46.89
44044;BME280;29709;52.396;16.796;2023-05-29T07:16:59;102099.72;;;19.98;46.86
44044;BME280;29709;52.396;16.796;2023-05-29T07:20:13;102104.84;;;20.16;46.89
44044;BME280;29709;52.396;16.796;2023-05-29T07:23:28;102106.64;;;20.24;46.08
44044;BME280;29709;52.396;16.796;2023-05-29T07:26:41;102103.34;;;20.41;46.20
44044;BME280;29709;52.396;16.796;2023-05-29T07:29:54;102105.16;;;20.49;45.43
44044;BME280;29709;52.396;16.796;2023-05-29T07:33:07;102110.90;;;20.97;45.46
44044;BME280;29709;52.396;16.796;2023-05-29T07:36:20;102106.17;;;21.32;44.71
44044;BME280;29709;52.396;16.796;2023-05-29T07:39:34;102103.03;;;21.48;44.30
44044;BME280;29709;52.396;16.796;2023-05-29T07:42:48;102107.55;;;21.56;43.77
44044;BME280;29709;52.396;16.796;2023-05-29T07:46:01;102111.73;;;21.73;43.51
44044;BME280;29709;52.396;16.796;2023-05-29T07:49:14;102119.47;;;21.71;43.80
44044;BME280;29709;52.396;16.796;2023-05-29T07:52:28;102119.18;;;21.53;42.54
44044;BME280;29709;52.396;16.796;2023-05-29T07:55:41;102125.03;;;21.65;42.28
44044;BME280;29709;52.396;16.796;2023-05-29T07:58:54;102123.01;;;21.45;42.00
44044;BME280;29709;52.396;16.796;2023-05-29T08:02:09;102121.16;;;21.66;42.77
44044;BME280;29709;52.396;16.796;2023-05-29T08:05:22;102136.73;;;21.81;41.88
44044;BME280;29709;52.396;16.796;2023-05-29T08:08:35;102133.93;;;21.81;41.47
44044;BME280;29709;52.396;16.796;2023-05-29T08:11:48;102135.21;;;21.85;41.45
44044;BME280;29709;52.396;16.796;2023-05-29T08:15:03;102129.87;;;21.97;41.68
44044;BME280;29709;52.396;16.796;2023-05-29T08:18:16;102129.73;;;22.25;40.84
44044;BME280;29709;52.396;16.796;2023-05-29T08:21:32;102115.55;;;22.53;40.93
44044;BME280;29709;52.396;16.796;2023-05-29T08:24:45;102125.66;;;22.61;40.34
44044;BME280;29709;52.396;16.796;2023-05-29T08:28:32;102127.19;;;22.43;40.53
44044;BME280;29709;52.396;16.796;2023-05-29T08:31:48;102123.72;;;22.48;40.15
44044;BME280;29709;52.396;16.796;2023-05-29T08:35:01;102124.17;;;22.52;39.61
44044;BME280;29709;52.396;16.796;2023-05-29T08:38:17;102126.98;;;22.52;39.66
44044;BME280;29709;52.396;16.796;2023-05-29T08:44:56;102123.09;;;22.66;40.14
44044;BME280;29709;52.396;16.796;2023-05-29T08:48:14;102128.46;;;22.47;38.50
44044;BME280;29709;52.396;16.796;2023-05-29T08:51:32;102135.34;;;22.25;39.06
44044;BME280;29709;52.396;16.796;2023-05-29T08:54:49;102127.61;;;22.34;40.46
44044;BME280;29709;52.396;16.796;2023-05-29T08:58:02;102127.59;;;22.40;39.16
44044;BME280;29709;52.396;16.796;2023-05-29T09:01:17;102120.49;;;22.31;40.75
44044;BME280;29709;52.396;16.796;2023-05-29T09:04:30;102114.47;;;22.54;40.69
44044;BME280;29709;52.396;16.796;2023-05-29T09:07:43;102122.84;;;22.81;39.70
44044;BME280;29709;52.396;16.796;2023-05-29T09:10:58;102120.05;;;22.67;39.78
44044;BME280;29709;52.396;16.796;2023-05-29T09:14:33;102124.59;;;22.75;40.28
44044;BME280;29709;52.396;16.796;2023-05-29T09:17:31;102120.67;;;23.09;39.15
44044;BME280;29709;52.396;16.796;2023-05-29T09:20:45;102125.14;;;23.37;40.00
44044;BME280;29709;52.396;16.796;2023-05-29T09:24:05;102124.30;;;23.23;39.51
44044;BME280;29709;52.396;16.796;2023-05-29T09:27:18;102125.15;;;23.30;39.78
44044;BME280;29709;52.396;16.796;2023-05-29T09:30:40;102133.83;;;23.15;38.62
44044;BME280;29709;52.396;16.796;2023-05-29T09:33:53;102127.19;;;22.90;39.45
44044;BME280;29709;52.396;16.796;2023-05-29T09:37:07;102137.27;;;23.17;39.89
44044;BME280;29709;52.396;16.796;2023-05-29T09:40:21;102130.80;;;23.17;38.48
44044;BME280;29709;52.396;16.796;2023-05-29T09:43:34;102141.84;;;23.05;39.15
44044;BME280;29709;52.396;16.796;2023-05-29T09:46:48;102134.66;;;23.22;39.07
44044;BME280;29709;52.396;16.796;2023-05-29T09:50:02;102129.05;;;23.22;38.34
44044;BME280;29709;52.396;16.796;2023-05-29T09:53:17;102133.20;;;23.07;38.75
44044;BME280;29709;52.396;16.796;2023-05-29T09:56:32;102126.95;;;22.91;39.26
44044;BME280;29709;52.396;16.796;2023-05-29T09:59:46;102121.56;;;22.96;39.56
44044;BME280;29709;52.396;16.796;2023-05-29T10:03:04;102117.91;;;22.76;39.10
44044;BME280;29709;52.396;16.796;2023-05-29T10:06:18;102122.63;;;23.02;39.56
44044;BME280;29709;52.396;16.796;2023-05-29T10:09:34;102121.84;;;23.59;39.69
44044;BME280;29709;52.396;16.796;2023-05-29T10:12:49;102121.59;;;23.68;37.94
44044;BME280;29709;52.396;16.796;2023-05-29T10:16:03;102123.95;;;23.64;38.00
44044;BME280;29709;52.396;16.796;2023-05-29T10:19:25;102115.11;;;23.67;37.54
44044;BME280;29709;52.396;16.796;2023-05-29T10:22:41;102118.50;;;23.76;38.06
44044;BME280;29709;52.396;16.796;2023-05-29T10:25:59;102119.32;;;24.21;37.42
44044;BME280;29709;52.396;16.796;2023-05-29T10:29:26;102120.34;;;24.58;36.63
44044;BME280;29709;52.396;16.796;2023-05-29T10:36:20;102117.87;;;24.12;36.28
44044;BME280;29709;52.396;16.796;2023-05-29T10:39:36;102105.57;;;24.06;36.73
44044;BME280;29709;52.396;16.796;2023-05-29T10:42:51;102119.13;;;24.16;36.64
44044;BME280;29709;52.396;16.796;2023-05-29T10:46:11;102112.77;;;24.34;36.97
44044;BME280;29709;52.396;16.796;2023-05-29T10:49:24;102116.91;;;24.25;36.57
44044;BME280;29709;52.396;16.796;2023-05-29T10:52:46;102114.96;;;24.25;35.74
44044;BME280;29709;52.396;16.796;2023-05-29T10:56:00;102117.42;;;24.46;35.08
44044;BME280;29709;52.396;16.796;2023-05-29T10:59:17;102106.64;;;24.43;35.16
44044;BME280;29709;52.396;16.796;2023-05-29T11:02:30;102118.51;;;24.45;34.83
44044;BME280;29709;52.396;16.796;2023-05-29T11:12:34;102094.57;;;24.86;33.17
44044;BME280;29709;52.396;16.796;2023-05-29T11:15:48;102111.77;;;24.96;34.07
44044;BME280;29709;52.396;16.796;2023-05-29T11:19:06;102103.48;;;24.83;33.33
44044;BME280;29709;52.396;16.796;2023-05-29T11:22:27;102094.09;;;24.89;34.04
44044;BME280;29709;52.396;16.796;2023-05-29T11:25:46;102096.22;;;24.94;33.63
44044;BME280;29709;52.396;16.796;2023-05-29T11:29:04;102096.99;;;25.01;34.05
44044;BME280;29709;52.396;16.796;2023-05-29T11:32:25;102099.01;;;25.37;33.13
44044;BME280;29709;52.396;16.796;2023-05-29T11:35:40;102113.07;;;25.37;32.87
44044;BME280;29709;52.396;16.796;2023-05-29T11:38:53;102107.21;;;25.39;33.22
44044;BME280;29709;52.396;16.796;2023-05-29T11:42:07;102108.37;;;25.31;31.80
44044;BME280;29709;52.396;16.796;2023-05-29T11:45:21;102096.70;;;24.91;31.41
44044;BME280;29709;52.396;16.796;2023-05-29T11:55:27;102088.33;;;24.59;32.23
44044;BME280;29709;52.396;16.796;2023-05-29T11:58:40;102085.62;;;24.21;32.30
44044;BME280;29709;52.396;16.796;2023-05-29T12:01:54;102092.20;;;24.08;32.94
44044;BME280;29709;52.396;16.796;2023-05-29T12:05:07;102087.43;;;24.09;32.72
44044;BME280;29709;52.396;16.796;2023-05-29T12:08:22;102082.55;;;24.54;33.22
44044;BME280;29709;52.396;16.796;2023-05-29T12:11:37;102085.37;;;24.97;32.92
44044;BME280;29709;52.396;16.796;2023-05-29T12:14:52;102082.37;;;24.74;30.70
44044;BME280;29709;52.396;16.796;2023-05-29T12:18:06;102080.02;;;24.46;31.82
44044;BME280;29709;52.396;16.796;2023-05-29T12:21:20;102078.77;;;24.42;32.63
44044;BME280;29709;52.396;16.796;2023-05-29T12:24:35;102080.26;;;24.44;33.05
44044;BME280;29709;52.396;16.796;2023-05-29T12:27:49;102072.30;;;24.41;32.57
44044;BME280;29709;52.396;16.796;2023-05-29T12:31:02;102069.07;;;24.63;33.27
44044;BME280;29709;52.396;16.796;2023-05-29T12:34:15;102080.89;;;24.90;31.87
44044;BME280;29709;52.396;16.796;2023-05-29T12:37:30;102073.55;;;24.89;30.87
44044;BME280;29709;52.396;16.796;2023-05-29T12:40:48;102073.21;;;24.79;31.56
44044;BME280;29709;52.396;16.796;2023-05-29T12:44:05;102072.53;;;24.83;31.60
44044;BME280;29709;52.396;16.796;2023-05-29T12:47:23;102066.68;;;24.85;31.98
44044;BME280;29709;52.396;16.796;2023-05-29T12:50:38;102056.66;;;25.14;31.60
44044;BME280;29709;52.396;16.796;2023-05-29T12:53:51;102060.23;;;25.21;31.14
44044;BME280;29709;52.396;16.796;2023-05-29T12:57:09;102057.72;;;25.31;30.55
44044;BME280;29709;52.396;16.796;2023-05-29T13:00:23;102059.61;;;25.19;30.51
44044;BME280;29709;52.396;16.796;2023-05-29T13:03:36;102065.44;;;24.81;30.61
44044;BME280;29709;52.396;16.796;2023-05-29T13:06:49;102055.01;;;24.63;30.90
44044;BME280;29709;52.396;16.796;2023-05-29T13:10:03;102046.60;;;24.99;30.64
44044;BME280;29709;52.396;16.796;2023-05-29T13:13:19;102040.94;;;25.06;30.93
44044;BME280;29709;52.396;16.796;2023-05-29T13:16:34;102046.01;;;24.54;29.89
44044;BME280;29709;52.396;16.796;2023-05-29T13:19:48;102039.43;;;24.42;30.99
44044;BME280;29709;52.396;16.796;2023-05-29T13:23:02;102029.85;;;24.50;31.60
44044;BME280;29709;52.396;16.796;2023-05-29T13:26:15;102038.08;;;24.88;31.53
44044;BME280;29709;52.396;16.796;2023-05-29T13:29:28;102036.79;;;25.09;31.41
44044;BME280;29709;52.396;16.796;2023-05-29T13:32:42;102038.69;;;25.15;31.01
44044;BME280;29709;52.396;16.796;2023-05-29T13:35:55;102033.13;;;25.08;30.28
44044;BME280;29709;52.396;16.796;2023-05-29T13:39:08;102036.42;;;24.80;30.34
44044;BME280;29709;52.396;16.796;2023-05-29T13:42:22;102031.25;;;24.59;30.27
44044;BME280;29709;52.396;16.796;2023-05-29T13:45:36;102016.87;;;24.48;29.23
44044;BME280;29709;52.396;16.796;2023-05-29T13:48:49;102028.28;;;24.54;30.84
44044;BME280;29709;52.396;16.796;2023-05-29T13:52:03;102025.30;;;24.48;31.10
44044;BME280;29709;52.396;16.796;2023-05-29T13:55:16;102034.91;;;24.41;31.40
44044;BME280;29709;52.396;16.796;2023-05-29T13:58:30;102025.80;;;24.14;31.28
44044;BME280;29709;52.396;16.796;2023-05-29T14:01:44;102028.34;;;23.97;30.95
44044;BME280;29709;52.396;16.796;2023-05-29T14:04:58;102037.32;;;23.74;31.28
44044;BME280;29709;52.396;16.796;2023-05-29T14:08:11;102033.32;;;23.57;32.22
44044;BME280;29709;52.396;16.796;2023-05-29T14:11:24;102035.26;;;23.56;31.55
44044;BME280;29709;52.396;16.796;2023-05-29T14:14:39;102029.39;;;23.65;31.32
44044;BME280;29709;52.396;16.796;2023-05-29T14:17:52;102034.88;;;23.84;31.82
44044;BME280;29709;52.396;16.796;2023-05-29T14:21:05;102037.81;;;23.96;31.54
44044;BME280;29709;52.396;16.796;2023-05-29T14:24:18;102038.48;;;23.98;30.12
44044;BME280;29709;52.396;16.796;2023-05-29T14:27:32;102033.88;;;24.04;30.74
44044;BME280;29709;52.396;16.796;2023-05-29T14:30:45;102037.81;;;23.96;30.35
44044;BME280;29709;52.396;16.796;2023-05-29T14:33:58;102030.78;;;23.87;30.59
44044;BME280;29709;52.396;16.796;2023-05-29T14:37:11;102030.90;;;23.99;30.65
44044;BME280;29709;52.396;16.796;2023-05-29T14:40:25;102021.90;;;23.90;30.72
44044;BME280;29709;52.396;16.796;2023-05-29T14:43:38;102021.83;;;23.97;30.61
44044;BME280;29709;52.396;16.796;2023-05-29T14:46:53;102023.23;;;24.12;31.30
44044;BME280;29709;52.396;16.796;2023-05-29T14:50:07;102018.86;;;24.16;30.65
44044;BME280;29709;52.396;16.796;2023-05-29T14:53:21;102016.76;;;24.12;30.17
44044;BME280;29709;52.396;16.796;2023-05-29T14:56:35;102014.45;;;24.02;29.77
44044;BME280;29709;52.396;16.796;2023-05-29T14:59:49;102012.84;;;23.88;30.51
44044;BME280;29709;52.396;16.796;2023-05-29T15:03:03;102002.64;;;23.62;30.30
44044;BME280;29709;52.396;16.796;2023-05-29T15:06:16;102008.82;;;23.32;31.12
44044;BME280;29709;52.396;16.796;2023-05-29T15:09:29;102010.66;;;23.14;31.54
44044;BME280;29709;52.396;16.796;2023-05-29T15:12:43;102020.95;;;23.26;31.71
44044;BME280;29709;52.396;16.796;2023-05-29T15:15:56;102015.10;;;23.35;31.60
44044;BME280;29709;52.396;16.796;2023-05-29T15:19:12;102006.85;;;23.40;31.29
44044;BME280;29709;52.396;16.796;2023-05-29T15:22:25;102011.77;;;23.44;31.25
44044;BME280;29709;52.396;16.796;2023-05-29T15:25:38;102007.69;;;23.47;31.36
44044;BME280;29709;52.396;16.796;2023-05-29T15:28:52;102002.73;;;23.42;31.63
44044;BME280;29709;52.396;16.796;2023-05-29T15:32:06;102007.54;;;23.35;32.26
44044;BME280;29709;52.396;16.796;2023-05-29T15:35:19;102002.13;;;23.33;31.38
44044;BME280;29709;52.396;16.796;2023-05-29T15:38:32;101996.02;;;23.43;31.36
44044;BME280;29709;52.396;16.796;2023-05-29T15:41:46;101995.54;;;23.53;31.64
44044;BME280;29709;52.396;16.796;2023-05-29T15:45:00;101995.98;;;23.56;30.92
44044;BME280;29709;52.396;16.796;2023-05-29T15:48:16;102003.88;;;23.35;30.75
44044;BME280;29709;52.396;16.796;2023-05-29T15:51:29;102004.59;;;23.17;31.16
44044;BME280;29709;52.396;16.796;2023-05-29T15:54:43;102005.71;;;23.02;31.41
44044;BME280;29709;52.396;16.796;2023-05-29T15:57:56;102014.41;;;22.88;30.72
44044;BME280;29709;52.396;16.796;2023-05-29T16:01:09;102000.41;;;22.74;31.53
44044;BME280;29709;52.396;16.796;2023-05-29T16:04:23;101999.95;;;22.78;31.73
44044;BME280;29709;52.396;16.796;2023-05-29T16:07:37;102001.66;;;22.92;32.21
44044;BME280;29709;52.396;16.796;2023-05-29T16:10:51;101998.84;;;22.98;31.84
44044;BME280;29709;52.396;16.796;2023-05-29T16:14:04;101998.14;;;23.10;32.04
44044;BME280;29709;52.396;16.796;2023-05-29T16:17:18;102003.98;;;23.08;31.54
44044;BME280;29709;52.396;16.796;2023-05-29T16:20:32;101998.44;;;22.95;32.03
44044;BME280;29709;52.396;16.796;2023-05-29T16:23:45;101994.57;;;22.76;31.95
44044;BME280;29709;52.396;16.796;2023-05-29T16:27:01;101998.28;;;22.57;32.63
44044;BME280;29709;52.396;16.796;2023-05-29T16:30:20;101998.54;;;22.42;32.71
44044;BME280;29709;52.396;16.796;2023-05-29T16:33:36;101992.93;;;22.35;33.01
44044;BME280;29709;52.396;16.796;2023-05-29T16:36:49;101999.84;;;22.33;33.06
44044;BME280;29709;52.396;16.796;2023-05-29T16:40:03;101992.29;;;22.27;33.06
44044;BME280;29709;52.396;16.796;2023-05-29T16:43:16;101983.24;;;22.18;33.25
44044;BME280;29709;52.396;16.796;2023-05-29T16:46:29;101993.61;;;22.11;33.12
44044;BME280;29709;52.396;16.796;2023-05-29T16:49:43;101989.50;;;22.07;33.93
44044;BME280;29709;52.396;16.796;2023-05-29T16:52:56;101998.95;;;22.06;33.72
44044;BME280;29709;52.396;16.796;2023-05-29T16:56:10;101989.05;;;22.03;33.39
44044;BME280;29709;52.396;16.796;2023-05-29T16:59:23;101995.49;;;21.97;33.65
44044;BME280;29709;52.396;16.796;2023-05-29T17:02:37;101996.36;;;21.98;33.58
44044;BME280;29709;52.396;16.796;2023-05-29T17:05:52;102000.03;;;21.92;33.59
44044;BME280;29709;52.396;16.796;2023-05-29T17:09:05;102000.02;;;21.85;33.91